sensor_id;sensor_type;location;lat;lon;timestamp;pressure;altitude;pressure_sealevel;temperature;humidity
5138;BME280;53959;53.626;11.410;2023-08-20T00:00:26;-26007.72;;;21.43;100.00
5138;BME280;53959;53.626;11.410;2023-08-20T00:02:58;-26006.91;;;21.40;100.00
5138;BME280;53959;53.626;11.410;2023-08-20T00:05:24;-26006.06;;;21.38;100.00
5138;BME280;53959;53.626;11.410;2023-08-20T00:07:50;-26004.91;;;21.34;100.00
5138;BME280;53959;53.626;11.410;2023-08-20T00:10:15;-26001.78;;;21.24;100.00
5138;BME280;53959;53.626;11.410;2023-08-20T00:12:40;-25997.31;;;21.10;100.00
5138;BME280;53959;53.626;11.410;2023-08-20T00:15:06;-25997.81;;;21.12;100.00
5138;BME280;53959;53.626;11.410;2023-08-20T00:19:58;-25999.63;;;21.18;100.00
5138;BME280;53959;53.626;11.410;2023-08-20T00:22:25;-25996.97;;;21.09;100.00
5138;BME280;53959;53.626;11.410;2023-08-20T00:24:54;-25998.31;;;21.14;100.00
5138;BME280;53959;53.626;11.410;2023-08-20T00:27:21;-25997.66;;;21.12;100.00
5138;BME280;53959;53.626;11.410;2023-08-20T00:29:46;-25993.19;;;20.98;100.00
5138;BME280;53959;53.626;11.410;2023-08-20T00:32:12;-25128.22;;;20.90;100.00
5138;BME280;53959;53.626;11.410;2023-08-20T00:34:37;-23474.38;;;20.91;100.00
5138;BME280;53959;53.626;11.410;2023-08-20T00:37:03;-23682.94;;;20.93;100.00
5138;BME280;53959;53.626;11.410;2023-08-20T00:39:29;-22295.28;;;20.80;100.00
5138;BME280;53959;53.626;11.410;2023-08-20T00:41:55;-21056.81;;;20.71;100.00
5138;BME280;53959;53.626;11.410;2023-08-20T00:44:20;-20137.25;;;20.68;100.00
5138;BME280;53959;53.626;11.410;2023-08-20T00:46:47;-18756.00;;;20.74;100.00
5138;BME280;53959;53.626;11.410;2023-08-20T00:49:12;-18634.16;;;20.65;100.00
5138;BME280;53959;53.626;11.410;2023-08-20T00:51:38;-17582.13;;;20.66;100.00
5138;BME280;53959;53.626;11.410;2023-08-20T00:54:05;-17404.28;;;20.49;100.00
5138;BME280;53959;53.626;11.410;2023-08-20T00:56:32;-17473.63;;;20.44;100.00
5138;BME280;53959;53.626;11.410;2023-08-20T00:58:57;-18360.47;;;20.38;100.00
5138;BME280;53959;53.626;11.410;2023-08-20T01:01:24;-19279.69;;;20.40;100.00
5138;BME280;53959;53.626;11.410;2023-08-20T01:03:49;-18931.66;;;20.31;100.00
5138;BME280;53959;53.626;11.410;2023-08-20T01:06:43;-16712.28;;;20.25;100.00
5138;BME280;53959;53.626;11.410;2023-08-20T01:09:41;-16805.94;;;20.24;100.00
5138;BME280;53959;53.626;11.410;2023-08-20T01:12:09;-17772.94;;;20.29;100.00
5138;BME280;53959;53.626;11.410;2023-08-20T01:14:35;-17309.09;;;20.00;100.00
5138;BME280;53959;53.626;11.410;2023-08-20T01:17:00;-14616.72;;;19.82;100.00
5138;BME280;53959;53.626;11.410;2023-08-20T01:19:26;-14531.81;;;19.89;100.00
5138;BME280;53959;53.626;11.410;2023-08-20T01:30:15;-16695.41;;;19.74;100.00
5138;BME280;53959;53.626;11.410;2023-08-20T01:32:41;-14852.47;;;19.56;100.00
5138;BME280;53959;53.626;11.410;2023-08-20T01:35:14;-12384.09;;;19.58;100.00
5138;BME280;53959;53.626;11.410;2023-08-20T01:37:39;-9865.25;;;19.37;100.00
5138;BME280;53959;53.626;11.410;2023-08-20T01:40:06;-9547.53;;;19.41;100.00
5138;BME280;53959;53.626;11.410;2023-08-20T01:42:33;-8965.81;;;19.34;100.00
5138;BME280;53959;53.626;11.410;2023-08-20T01:44:58;-6224.88;;;19.27;100.00
5138;BME280;53959;53.626;11.410;2023-08-20T01:47:24;-6399.88;;;19.40;100.00
5138;BME280;53959;53.626;11.410;2023-08-20T01:49:51;-5778.72;;;19.19;100.00
5138;BME280;53959;53.626;11.410;2023-08-20T01:52:16;-3375.75;;;19.02;100.00
5138;BME280;53959;53.626;11.410;2023-08-20T01:54:42;-973.03;;;19.13;100.00
5138;BME280;53959;53.626;11.410;2023-08-20T01:57:07;246.34;;;19.04;100.00
5138;BME280;53959;53.626;11.410;2023-08-20T01:59:32;2033.91;;;19.03;100.00
5138;BME280;53959;53.626;11.410;2023-08-20T02:01:58;1584.16;;;19.02;100.00
5138;BME280;53959;53.626;11.410;2023-08-20T02:04:23;1704.13;;;19.00;100.00
5138;BME280;53959;53.626;11.410;2023-08-20T02:06:49;1416.66;;;19.00;100.00
5138;BME280;53959;53.626;11.410;2023-08-20T02:09:14;635.38;;;19.01;100.00
5138;BME280;53959;53.626;11.410;2023-08-20T02:11:40;-679.09;;;18.96;100.00
5138;BME280;53959;53.626;11.410;2023-08-20T02:14:05;-1477.13;;;19.14;100.00
5138;BME280;53959;53.626;11.410;2023-08-20T02:16:31;-2660.22;;;19.11;100.00
5138;BME280;53959;53.626;11.410;2023-08-20T02:18:58;-2976.00;;;19.13;100.00
5138;BME280;53959;53.626;11.410;2023-08-20T02:21:24;-2532.81;;;18.99;100.00
5138;BME280;53959;53.626;11.410;2023-08-20T02:23:49;-114.69;;;18.99;100.00
5138;BME280;53959;53.626;11.410;2023-08-20T02:26:15;1170.84;;;18.99;100.00
5138;BME280;53959;53.626;11.410;2023-08-20T02:28:40;1264.34;;;18.93;100.00
5138;BME280;53959;53.626;11.410;2023-08-20T02:31:06;1935.19;;;18.86;100.00
5138;BME280;53959;53.626;11.410;2023-08-20T02:33:31;3104.75;;;18.75;100.00
5138;BME280;53959;53.626;11.410;2023-08-20T02:36:03;6206.59;;;18.62;100.00
5138;BME280;53959;53.626;11.410;2023-08-20T02:38:29;7415.94;;;18.52;100.00
5138;BME280;53959;53.626;11.410;2023-08-20T02:40:55;8406.63;;;18.59;100.00
5138;BME280;53959;53.626;11.410;2023-08-20T02:43:20;7759.94;;;18.58;100.00
5138;BME280;53959;53.626;11.410;2023-08-20T02:45:46;7553.72;;;18.60;100.00
5138;BME280;53959;53.626;11.410;2023-08-20T02:48:13;8032.69;;;18.48;100.00
5138;BME280;53959;53.626;11.410;2023-08-20T02:50:38;8693.53;;;18.54;100.00
5138;BME280;53959;53.626;11.410;2023-08-20T02:53:04;9275.19;;;18.45;100.00
5138;BME280;53959;53.626;11.410;2023-08-20T02:55:30;10262.78;;;18.37;100.00
5138;BME280;53959;53.626;11.410;2023-08-20T02:57:55;10109.41;;;18.52;100.00
5138;BME280;53959;53.626;11.410;2023-08-20T03:00:21;11064.91;;;18.30;100.00
5138;BME280;53959;53.626;11.410;2023-08-20T03:02:46;12117.66;;;18.30;100.00
5138;BME280;53959;53.626;11.410;2023-08-20T03:05:12;13278.56;;;18.23;100.00
5138;BME280;53959;53.626;11.410;2023-08-20T03:07:37;13608.09;;;18.12;100.00
5138;BME280;53959;53.626;11.410;2023-08-20T03:10:03;14639.81;;;18.27;100.00
5138;BME280;53959;53.626;11.410;2023-08-20T03:12:28;11779.38;;;18.29;100.00
5138;BME280;53959;53.626;11.410;2023-08-20T03:14:54;13194.13;;;18.20;100.00
5138;BME280;53959;53.626;11.410;2023-08-20T03:17:20;12800.03;;;18.26;100.00
5138;BME280;53959;53.626;11.410;2023-08-20T03:19:59;12379.50;;;18.20;100.00
5138;BME280;53959;53.626;11.410;2023-08-20T03:22:26;13507.66;;;18.09;100.00
5138;BME280;53959;53.626;11.410;2023-08-20T03:24:52;14789.09;;;18.18;100.00
5138;BME280;53959;53.626;11.410;2023-08-20T03:27:17;15107.53;;;18.14;100.00
5138;BME280;53959;53.626;11.410;2023-08-20T03:29:43;14187.16;;;18.20;100.00
5138;BME280;53959;53.626;11.410;2023-08-20T03:32:10;15308.66;;;18.04;100.00
5138;BME280;53959;53.626;11.410;2023-08-20T03:34:35;16291.03;;;18.10;100.00
5138;BME280;53959;53.626;11.410;2023-08-20T03:37:01;16117.16;;;18.00;100.00
5138;BME280;53959;53.626;11.410;2023-08-20T03:39:26;16171.00;;;17.96;100.00
5138;BME280;53959;53.626;11.410;2023-08-20T03:41:52;16469.28;;;17.94;100.00
5138;BME280;53959;53.626;11.410;2023-08-20T03:44:18;15309.91;;;17.91;100.00
5138;BME280;53959;53.626;11.410;2023-08-20T03:46:44;15856.56;;;17.88;100.00
5138;BME280;53959;53.626;11.410;2023-08-20T03:49:09;16240.75;;;17.78;100.00
5138;BME280;53959;53.626;11.410;2023-08-20T03:51:35;16817.69;;;17.86;100.00
5138;BME280;53959;53.626;11.410;2023-08-20T03:54:00;17112.72;;;17.76;100.00
5138;BME280;53959;53.626;11.410;2023-08-20T03:56:26;17910.50;;;17.71;100.00
5138;BME280;53959;53.626;11.410;2023-08-20T03:58:51;18954.19;;;17.71;100.00
5138;BME280;53959;53.626;11.410;2023-08-20T04:01:19;20745.84;;;17.72;100.00
5138;BME280;53959;53.626;11.410;2023-08-20T04:03:47;20776.91;;;17.71;100.00
5138;BME280;53959;53.626;11.410;2023-08-20T04:06:14;19540.38;;;17.75;100.00
5138;BME280;53959;53.626;11.410;2023-08-20T04:08:40;17667.66;;;17.73;100.00
5138;BME280;53959;53.626;11.410;2023-08-20T04:11:06;17801.16;;;17.73;100.00
5138;BME280;53959;53.626;11.410;2023-08-20T04:13:32;17610.34;;;17.75;100.00
5138;BME280;53959;53.626;11.410;2023-08-20T04:15:57;17752.66;;;17.77;100.00
5138;BME280;53959;53.626;11.410;2023-08-20T04:18:23;17846.66;;;17.68;100.00
5138;BME280;53959;53.626;11.410;2023-08-20T04:20:52;18434.00;;;17.62;100.00
5138;BME280;53959;53.626;11.410;2023-08-20T04:23:19;19951.91;;;17.55;100.00
5138;BME280;53959;53.626;11.410;2023-08-20T04:25:44;20854.09;;;17.55;100.00
5138;BME280;53959;53.626;11.410;2023-08-20T04:28:12;20610.91;;;17.63;100.00
5138;BME280;53959;53.626;11.410;2023-08-20T04:30:37;20711.63;;;17.65;100.00
5138;BME280;53959;53.626;11.410;2023-08-20T04:33:04;19614.03;;;17.62;100.00
5138;BME280;53959;53.626;11.410;2023-08-20T04:35:29;20593.28;;;17.58;100.00
5138;BME280;53959;53.626;11.410;2023-08-20T04:37:54;20442.94;;;17.56;100.00
5138;BME280;53959;53.626;11.410;2023-08-20T04:40:20;22019.38;;;17.56;100.00
5138;BME280;53959;53.626;11.410;2023-08-20T04:42:45;20745.22;;;17.70;100.00
5138;BME280;53959;53.626;11.410;2023-08-20T04:45:12;18405.78;;;17.70;100.00
5138;BME280;53959;53.626;11.410;2023-08-20T04:47:38;18869.00;;;17.61;100.00
5138;BME280;53959;53.626;11.410;2023-08-20T04:50:03;18032.41;;;17.67;100.00
5138;BME280;53959;53.626;11.410;2023-08-20T04:52:32;17329.13;;;17.58;100.00
5138;BME280;53959;53.626;11.410;2023-08-20T04:54:57;17950.00;;;17.57;100.00
5138;BME280;53959;53.626;11.410;2023-08-20T04:57:23;17926.44;;;17.64;100.00
5138;BME280;53959;53.626;11.410;2023-08-20T04:59:48;17744.44;;;17.68;100.00
5138;BME280;53959;53.626;11.410;2023-08-20T05:02:40;15206.88;;;17.81;100.00
5138;BME280;53959;53.626;11.410;2023-08-20T05:05:05;14866.53;;;17.65;100.00
5138;BME280;53959;53.626;11.410;2023-08-20T05:07:31;15901.72;;;17.75;100.00
5138;BME280;53959;53.626;11.410;2023-08-20T05:09:57;14935.59;;;17.76;100.00
5138;BME280;53959;53.626;11.410;2023-08-20T05:12:22;14049.50;;;17.82;100.00
5138;BME280;53959;53.626;11.410;2023-08-20T05:14:48;13771.00;;;17.79;100.00
5138;BME280;53959;53.626;11.410;2023-08-20T05:17:13;11680.22;;;17.91;100.00
5138;BME280;53959;53.626;11.410;2023-08-20T05:19:38;11129.66;;;18.07;100.00
5138;BME280;53959;53.626;11.410;2023-08-20T05:22:04;8981.22;;;17.95;100.00
5138;BME280;53959;53.626;11.410;2023-08-20T05:24:32;10065.00;;;18.09;100.00
5138;BME280;53959;53.626;11.410;2023-08-20T05:27:16;10794.75;;;18.08;100.00
5138;BME280;53959;53.626;11.410;2023-08-20T05:29:45;8476.94;;;18.21;100.00
5138;BME280;53959;53.626;11.410;2023-08-20T05:32:10;7302.78;;;18.35;100.00
5138;BME280;53959;53.626;11.410;2023-08-20T05:34:36;4998.56;;;18.31;100.00
5138;BME280;53959;53.626;11.410;2023-08-20T05:37:02;4296.19;;;18.18;100.00
5138;BME280;53959;53.626;11.410;2023-08-20T05:39:41;8555.47;;;18.09;100.00
5138;BME280;53959;53.626;11.410;2023-08-20T05:42:07;8539.50;;;18.20;100.00
5138;BME280;53959;53.626;11.410;2023-08-20T05:44:33;4346.84;;;18.42;100.00
5138;BME280;53959;53.626;11.410;2023-08-20T05:46:59;3124.63;;;18.47;100.00
5138;BME280;53959;53.626;11.410;2023-08-20T05:49:26;1598.78;;;18.44;100.00
5138;BME280;53959;53.626;11.410;2023-08-20T05:51:51;518.38;;;18.50;100.00
5138;BME280;53959;53.626;11.410;2023-08-20T05:54:17;-316.19;;;18.60;100.00
5138;BME280;53959;53.626;11.410;2023-08-20T05:56:42;-3102.59;;;18.77;100.00
5138;BME280;53959;53.626;11.410;2023-08-20T05:59:08;-6440.22;;;18.64;100.00
5138;BME280;53959;53.626;11.410;2023-08-20T06:01:33;-8547.31;;;18.57;100.00
5138;BME280;53959;53.626;11.410;2023-08-20T06:03:59;-7263.41;;;18.58;100.00
5138;BME280;53959;53.626;11.410;2023-08-20T06:06:26;-8414.38;;;18.54;100.00
5138;BME280;53959;53.626;11.410;2023-08-20T06:08:51;-7751.28;;;18.78;100.00
5138;BME280;53959;53.626;11.410;2023-08-20T06:11:16;-9275.28;;;18.81;100.00
5138;BME280;53959;53.626;11.410;2023-08-20T06:13:42;-11717.22;;;18.56;100.00
5138;BME280;53959;53.626;11.410;2023-08-20T06:16:07;-7705.97;;;18.52;100.00
5138;BME280;53959;53.626;11.410;2023-08-20T06:18:32;-6343.50;;;18.45;100.00
5138;BME280;53959;53.626;11.410;2023-08-20T06:20:58;-8835.28;;;18.84;100.00
5138;BME280;53959;53.626;11.410;2023-08-20T06:23:23;-12904.22;;;18.86;100.00
5138;BME280;53959;53.626;11.410;2023-08-20T06:25:50;-12573.91;;;18.87;100.00
5138;BME280;53959;53.626;11.410;2023-08-20T06:28:15;-17998.44;;;18.81;100.00
5138;BME280;53959;53.626;11.410;2023-08-20T06:30:41;-15780.56;;;18.72;100.00
5138;BME280;53959;53.626;11.410;2023-08-20T06:33:06;-16506.06;;;18.75;100.00
5138;BME280;53959;53.626;11.410;2023-08-20T06:35:32;-19163.13;;;19.11;100.00
5138;BME280;53959;53.626;11.410;2023-08-20T06:37:57;-23783.50;;;19.02;100.00
5138;BME280;53959;53.626;11.410;2023-08-20T06:40:22;-25230.53;;;19.02;100.00
5138;BME280;53959;53.626;11.410;2023-08-20T06:42:48;-25895.22;;;19.22;100.00
5138;BME280;53959;53.626;11.410;2023-08-20T06:45:13;-25938.03;;;19.28;100.00
5138;BME280;53959;53.626;11.410;2023-08-20T06:47:39;-25932.75;;;19.11;100.00
5138;BME280;53959;53.626;11.410;2023-08-20T06:50:04;-25050.13;;;19.14;100.00
5138;BME280;53959;53.626;11.410;2023-08-20T06:52:31;-22933.13;;;18.75;100.00
5138;BME280;53959;53.626;11.410;2023-08-20T06:54:56;-21573.81;;;18.84;100.00
5138;BME280;53959;53.626;11.410;2023-08-20T06:57:22;-22196.56;;;18.85;100.00
5138;BME280;53959;53.626;11.410;2023-08-20T06:59:47;-23295.75;;;19.01;100.00
5138;BME280;53959;53.626;11.410;2023-08-20T07:02:12;-24796.53;;;19.24;100.00
5138;BME280;53959;53.626;11.410;2023-08-20T07:04:38;-25947.31;;;19.56;100.00
5138;BME280;53959;53.626;11.410;2023-08-20T07:07:03;-25940.03;;;19.34;100.00
5138;BME280;53959;53.626;11.410;2023-08-20T07:09:33;-25946.66;;;19.54;100.00
5138;BME280;53959;53.626;11.410;2023-08-20T07:11:58;-25956.59;;;19.85;100.00
5138;BME280;53959;53.626;11.410;2023-08-20T07:14:24;-25946.34;;;19.53;100.00
5138;BME280;53959;53.626;11.410;2023-08-20T07:16:49;-25945.84;;;19.52;100.00
5138;BME280;53959;53.626;11.410;2023-08-20T07:19:14;-25944.34;;;19.47;100.00
5138;BME280;53959;53.626;11.410;2023-08-20T07:21:40;-25959.59;;;19.94;100.00
5138;BME280;53959;53.626;11.410;2023-08-20T07:24:06;-25953.63;;;19.76;100.00
5138;BME280;53959;53.626;11.410;2023-08-20T07:26:31;-25949.81;;;19.64;100.00
5138;BME280;53959;53.626;11.410;2023-08-20T07:28:56;-25964.72;;;20.10;100.00
5138;BME280;53959;53.626;11.410;2023-08-20T07:31:27;-25961.25;;;19.99;100.00
5138;BME280;53959;53.626;11.410;2023-08-20T07:33:53;-25959.91;;;19.95;100.00
5138;BME280;53959;53.626;11.410;2023-08-20T07:36:20;-25954.47;;;19.78;100.00
5138;BME280;53959;53.626;11.410;2023-08-20T07:38:49;-25979.44;;;20.55;100.00
5138;BME280;53959;53.626;11.410;2023-08-20T07:41:15;-25953.28;;;19.75;100.00
5138;BME280;53959;53.626;11.410;2023-08-20T07:43:41;-25987.72;;;20.81;100.00
5138;BME280;53959;53.626;11.410;2023-08-20T07:46:08;-25964.22;;;20.08;100.00
5138;BME280;53959;53.626;11.410;2023-08-20T07:48:34;-26001.78;;;21.24;100.00
5138;BME280;53959;53.626;11.410;2023-08-20T07:51:00;-25984.56;;;20.71;100.00
5138;BME280;53959;53.626;11.410;2023-08-20T07:53:25;-26059.25;;;23.02;100.00
5138;BME280;53959;53.626;11.410;2023-08-20T07:55:51;-26076.06;;;23.54;100.00
5138;BME280;53959;53.626;11.410;2023-08-20T07:58:16;-26063.38;;;23.15;100.00
5138;BME280;53959;53.626;11.410;2023-08-20T08:00:42;-26125.94;;;25.09;100.00
5138;BME280;53959;53.626;11.410;2023-08-20T08:03:08;-26169.16;;;26.43;100.00
5138;BME280;53959;53.626;11.410;2023-08-20T08:05:37;-26125.59;;;25.08;100.00
5138;BME280;53959;53.626;11.410;2023-08-20T08:08:03;-26204.09;;;27.52;100.00
5138;BME280;53959;53.626;11.410;2023-08-20T08:10:28;-26161.44;;;26.19;100.00
5138;BME280;53959;53.626;11.410;2023-08-20T08:12:54;-26254.53;;;29.09;99.30
5138;BME280;53959;53.626;11.410;2023-08-20T08:15:19;-26257.47;;;29.18;89.38
5138;BME280;53959;53.626;11.410;2023-08-20T08:17:45;-26272.19;;;29.64;90.73
5138;BME280;53959;53.626;11.410;2023-08-20T08:20:10;-26262.69;;;29.35;90.15
5138;BME280;53959;53.626;11.410;2023-08-20T08:22:35;-26282.94;;;29.98;87.52
5138;BME280;53959;53.626;11.410;2023-08-20T08:25:01;-26205.25;;;27.55;100.00
5138;BME280;53959;53.626;11.410;2023-08-20T08:27:26;-26238.31;;;28.59;95.19
5138;BME280;53959;53.626;11.410;2023-08-20T08:29:51;-26262.53;;;29.34;93.68
5138;BME280;53959;53.626;11.410;2023-08-20T08:32:17;-26259.09;;;29.23;91.68
5138;BME280;53959;53.626;11.410;2023-08-20T08:34:42;-26168.50;;;26.41;100.00
5138;BME280;53959;53.626;11.410;2023-08-20T08:37:08;-26201.97;;;27.45;100.00
5138;BME280;53959;53.626;11.410;2023-08-20T08:39:33;-26166.38;;;26.34;100.00
5138;BME280;53959;53.626;11.410;2023-08-20T08:42:01;-26167.84;;;26.39;100.00
5138;BME280;53959;53.626;11.410;2023-08-20T08:44:34;-26204.09;;;27.52;100.00
5138;BME280;53959;53.626;11.410;2023-08-20T08:47:01;-26241.09;;;28.67;92.71
5138;BME280;53959;53.626;11.410;2023-08-20T08:49:27;-26206.06;;;27.58;100.00
5138;BME280;53959;53.626;11.410;2023-08-20T08:51:56;-26219.50;;;28.00;100.00
5138;BME280;53959;53.626;11.410;2023-08-20T08:54:21;-26187.88;;;27.01;100.00
5138;BME280;53959;53.626;11.410;2023-08-20T08:56:47;-26260.56;;;29.28;94.42
5138;BME280;53959;53.626;11.410;2023-08-20T08:59:12;-26276.56;;;29.78;90.52
5138;BME280;53959;53.626;11.410;2023-08-20T09:01:38;-26237.84;;;28.57;94.73
5138;BME280;53959;53.626;11.410;2023-08-20T09:04:05;-26238.81;;;28.60;96.04
5138;BME280;53959;53.626;11.410;2023-08-20T09:06:44;-26245.69;;;28.82;90.23
5138;BME280;53959;53.626;11.410;2023-08-20T09:09:10;-26277.88;;;29.82;81.00
5138;BME280;53959;53.626;11.410;2023-08-20T09:11:36;-26291.13;;;30.23;87.34
5138;BME280;53959;53.626;11.410;2023-08-20T09:14:05;-26271.03;;;29.61;81.65
5138;BME280;53959;53.626;11.410;2023-08-20T09:16:31;-26210.31;;;27.71;97.93
5138;BME280;53959;53.626;11.410;2023-08-20T09:18:59;-26212.78;;;27.79;94.86
5138;BME280;53959;53.626;11.410;2023-08-20T09:21:28;-26228.16;;;28.27;92.08
5138;BME280;53959;53.626;11.410;2023-08-20T09:23:55;-26221.47;;;28.06;96.49
5138;BME280;53959;53.626;11.410;2023-08-20T09:26:20;-26293.72;;;30.32;79.74
5138;BME280;53959;53.626;11.410;2023-08-20T09:28:46;-26274.13;;;29.70;84.43
5138;BME280;53959;53.626;11.410;2023-08-20T09:31:13;-26273.00;;;29.67;82.11
5138;BME280;53959;53.626;11.410;2023-08-20T09:33:51;-26267.25;;;29.49;83.25
5138;BME280;53959;53.626;11.410;2023-08-20T09:36:18;-26293.22;;;30.30;77.24
5138;BME280;53959;53.626;11.410;2023-08-20T09:38:43;-26292.09;;;30.27;76.61
5138;BME280;53959;53.626;11.410;2023-08-20T09:41:09;-26315.25;;;30.99;73.89
5138;BME280;53959;53.626;11.410;2023-08-20T09:43:37;-26245.84;;;28.82;82.76
5138;BME280;53959;53.626;11.410;2023-08-20T09:46:03;-26292.41;;;30.28;72.03
5138;BME280;53959;53.626;11.410;2023-08-20T09:48:33;-26296.00;;;30.39;72.43
5138;BME280;53959;53.626;11.410;2023-08-20T09:51:04;-26265.47;;;29.43;77.75
5138;BME280;53959;53.626;11.410;2023-08-20T09:53:35;-26263.84;;;29.38;76.93
5138;BME280;53959;53.626;11.410;2023-08-20T09:56:20;-26266.13;;;29.45;78.13
5138;BME280;53959;53.626;11.410;2023-08-20T09:58:48;-26219.50;;;28.00;88.18
5138;BME280;53959;53.626;11.410;2023-08-20T10:01:14;-26177.69;;;26.70;97.43
5138;BME280;53959;53.626;11.410;2023-08-20T10:03:41;-26141.41;;;25.57;100.00
5138;BME280;53959;53.626;11.410;2023-08-20T10:06:08;-26133.50;;;25.32;100.00
5138;BME280;53959;53.626;11.410;2023-08-20T10:08:34;-26131.53;;;25.26;100.00
5138;BME280;53959;53.626;11.410;2023-08-20T10:10:59;-26123.31;;;25.01;100.00
5138;BME280;53959;53.626;11.410;2023-08-20T10:13:25;-26115.09;;;24.75;100.00
5138;BME280;53959;53.626;11.410;2023-08-20T10:15:50;-26121.50;;;24.95;100.00
5138;BME280;53959;53.626;11.410;2023-08-20T10:18:19;-26118.88;;;24.87;100.00
5138;BME280;53959;53.626;11.410;2023-08-20T10:20:45;-26119.19;;;24.88;100.00
5138;BME280;53959;53.626;11.410;2023-08-20T10:23:11;-26110.97;;;24.62;100.00
5138;BME280;53959;53.626;11.410;2023-08-20T10:25:41;-26102.56;;;24.36;100.00
5138;BME280;53959;53.626;11.410;2023-08-20T10:28:20;-26111.31;;;24.63;100.00
5138;BME280;53959;53.626;11.410;2023-08-20T10:31:07;-26118.03;;;24.84;100.00
5138;BME280;53959;53.626;11.410;2023-08-20T10:33:38;-26113.44;;;24.70;100.00
5138;BME280;53959;53.626;11.410;2023-08-20T10:36:09;-26117.06;;;24.81;100.00
5138;BME280;53959;53.626;11.410;2023-08-20T10:38:37;-26118.88;;;24.87;100.00
5138;BME280;53959;53.626;11.410;2023-08-20T10:41:06;-26110.16;;;24.60;100.00
5138;BME280;53959;53.626;11.410;2023-08-20T10:43:39;-26114.91;;;24.75;100.00
5138;BME280;53959;53.626;11.410;2023-08-20T10:46:16;-26117.06;;;24.81;100.00
5138;BME280;53959;53.626;11.410;2023-08-20T10:48:43;-26116.25;;;24.79;100.00
5138;BME280;53959;53.626;11.410;2023-08-20T10:51:12;-26129.06;;;25.18;100.00
5138;BME280;53959;53.626;11.410;2023-08-20T10:53:38;-26114.09;;;24.72;100.00
5138;BME280;53959;53.626;11.410;2023-08-20T10:56:12;-26124.47;;;25.04;100.00
5138;BME280;53959;53.626;11.410;2023-08-20T10:58:41;-26121.66;;;24.95;100.00
5138;BME280;53959;53.626;11.410;2023-08-20T11:01:22;-26129.91;;;25.21;100.00
5138;BME280;53959;53.626;11.410;2023-08-20T11:03:49;-26131.03;;;25.25;100.00
5138;BME280;53959;53.626;11.410;2023-08-20T11:06:15;-26129.91;;;25.21;100.00
5138;BME280;53959;53.626;11.410;2023-08-20T11:08:41;-26136.78;;;25.42;100.00
5138;BME280;53959;53.626;11.410;2023-08-20T11:11:07;-26135.31;;;25.38;100.00
5138;BME280;53959;53.626;11.410;2023-08-20T11:13:33;-26132.69;;;25.30;100.00
5138;BME280;53959;53.626;11.410;2023-08-20T11:16:03;-26126.94;;;25.12;100.00
5138;BME280;53959;53.626;11.410;2023-08-20T11:18:30;-26133.84;;;25.33;100.00
5138;BME280;53959;53.626;11.410;2023-08-20T11:20:56;-26136.63;;;25.42;100.00
5138;BME280;53959;53.626;11.410;2023-08-20T11:23:22;-26148.47;;;25.79;100.00
5138;BME280;53959;53.626;11.410;2023-08-20T11:25:47;-26146.31;;;25.72;100.00
5138;BME280;53959;53.626;11.410;2023-08-20T11:28:13;-26150.28;;;25.84;97.95
5138;BME280;53959;53.626;11.410;2023-08-20T11:30:38;-26147.16;;;25.75;100.00
5138;BME280;53959;53.626;11.410;2023-08-20T11:33:04;-26148.13;;;25.78;100.00
5138;BME280;53959;53.626;11.410;2023-08-20T11:35:31;-26151.75;;;25.89;100.00
5138;BME280;53959;53.626;11.410;2023-08-20T11:37:56;-26146.50;;;25.73;100.00
5138;BME280;53959;53.626;11.410;2023-08-20T11:40:23;-26147.81;;;25.77;100.00
5138;BME280;53959;53.626;11.410;2023-08-20T11:42:48;-26144.53;;;25.66;95.30
5138;BME280;53959;53.626;11.410;2023-08-20T11:45:14;-26143.03;;;25.62;95.52
5138;BME280;53959;53.626;11.410;2023-08-20T11:47:41;-26149.63;;;25.82;96.37
5138;BME280;53959;53.626;11.410;2023-08-20T11:50:08;-26144.69;;;25.67;95.56
5138;BME280;53959;53.626;11.410;2023-08-20T11:52:35;-26150.09;;;25.84;95.78
5138;BME280;53959;53.626;11.410;2023-08-20T11:55:01;-26140.75;;;25.55;99.25
5138;BME280;53959;53.626;11.410;2023-08-20T11:57:28;-26132.19;;;25.28;100.00
5138;BME280;53959;53.626;11.410;2023-08-20T11:59:53;-26146.00;;;25.71;100.00
5138;BME280;53959;53.626;11.410;2023-08-20T12:02:26;-26165.06;;;26.30;95.57
5138;BME280;53959;53.626;11.410;2023-08-20T12:04:55;-26169.66;;;26.45;93.63
5138;BME280;53959;53.626;11.410;2023-08-20T12:07:25;-26169.66;;;26.45;91.80
5138;BME280;53959;53.626;11.410;2023-08-20T12:09:53;-26170.31;;;26.47;94.56
5138;BME280;53959;53.626;11.410;2023-08-20T12:12:19;-26176.06;;;26.64;90.08
5138;BME280;53959;53.626;11.410;2023-08-20T12:14:45;-26171.63;;;26.51;89.73
5138;BME280;53959;53.626;11.410;2023-08-20T12:17:11;-26159.63;;;26.13;91.71
5138;BME280;53959;53.626;11.410;2023-08-20T12:19:37;-26162.91;;;26.24;91.77
5138;BME280;53959;53.626;11.410;2023-08-20T12:22:02;-26172.59;;;26.54;92.06
5138;BME280;53959;53.626;11.410;2023-08-20T12:24:29;-26167.03;;;26.36;90.99
5138;BME280;53959;53.626;11.410;2023-08-20T12:26:54;-26176.22;;;26.65;90.73
5138;BME280;53959;53.626;11.410;2023-08-20T12:29:20;-26179.16;;;26.74;88.18
5138;BME280;53959;53.626;11.410;2023-08-20T12:31:45;-26193.44;;;27.19;86.67
5138;BME280;53959;53.626;11.410;2023-08-20T12:34:11;-26178.69;;;26.73;89.00
5138;BME280;53959;53.626;11.410;2023-08-20T12:36:36;-26180.66;;;26.79;88.92
5138;BME280;53959;53.626;11.410;2023-08-20T12:39:02;-26165.53;;;26.32;89.44
5138;BME280;53959;53.626;11.410;2023-08-20T12:41:29;-26168.34;;;26.40;89.06
5138;BME280;53959;53.626;11.410;2023-08-20T12:43:55;-26178.03;;;26.71;88.63
5138;BME280;53959;53.626;11.410;2023-08-20T12:46:20;-26177.84;;;26.70;88.34
5138;BME280;53959;53.626;11.410;2023-08-20T12:48:45;-26185.88;;;26.95;88.21
5138;BME280;53959;53.626;11.410;2023-08-20T12:51:11;-26202.28;;;27.46;86.97
5138;BME280;53959;53.626;11.410;2023-08-20T12:53:39;-26228.50;;;28.28;83.45
5138;BME280;53959;53.626;11.410;2023-08-20T12:56:05;-26263.66;;;29.38;77.45